West Blue, Nebraska
Current Conditions -  °F | °C
As of 4:53 AM on Thursday 23 Oct 2014 (Local Time) from KHSI Reporting Station
Moderate Fog Moderate Fog  
Wind Chill: 51°   Ceiling: 100
Heat Index: 51°   Visibility: 0.25mi
Dew Point: 49°   Wind: 3mph
Humidity: 92%   Direction: 10°N
Pressure: 30.05"   Gusts: NA
Location:  40.5551°N, 98.369°W
Report Text: KHSI 230953Z AUTO 01003KT 1/4SM FG VV001 11/09 A3005 RMK AO2 SLP174 T01060094
Loading
Personal Weather Stations






























Interactive Weather Map
Tropical Storm Tracking
New forecast layout! Learn more

10-Day Weather Forecast

Advertisements
Track Severe Weather on mobile